Time;durP1;ratioP1;P1;durP2;ratioP2;P2;SDS_P1;SDS_P2;PMS_P1;PMS_P2;Temp;Humidity;BMP_temperature;BMP_pressure;BME280_temperature;BME280_humidity;BME280_pressure;Samples;Min_cycle;Max_cycle;Signal;HPM_P1;HPM_P2
2023/10/03 00:01:54;;;;;;;;;14.00;11.50;;;;;10.94;100.00;100354.66;6277195;20;2789937;-47
2023/10/03 00:04:22;;;;;;;;;14.00;13.00;;;;;11.07;100.00;100360.25;6279338;20;2794018;-47
2023/10/03 00:06:51;;;;;;;;;10.33;9.67;;;;;10.88;100.00;100358.53;6278277;20;2776446;-48
2023/10/03 00:09:19;;;;;;;;;13.00;12.00;;;;;10.72;100.00;100349.53;6321322;20;2673195;-47
2023/10/03 00:11:47;;;;;;;;;15.00;11.00;;;;;10.91;100.00;100349.44;6278922;20;3516925;-48
2023/10/03 00:14:16;;;;;;;;;12.33;11.00;;;;;11.23;100.00;100345.03;6308484;20;3510781;-46
2023/10/03 00:16:45;;;;;;;;;11.00;11.00;;;;;10.91;100.00;100344.06;6312279;20;2788776;-48
2023/10/03 00:19:13;;;;;;;;;16.33;13.67;;;;;11.19;100.00;100343.50;6279891;20;2796137;-45
2023/10/03 00:21:41;;;;;;;;;12.00;11.00;;;;;10.79;100.00;100337.50;6309825;20;2788997;-48
2023/10/03 00:24:10;;;;;;;;;12.67;12.00;;;;;11.37;100.00;100341.59;6279018;20;2797340;-47
2023/10/03 00:26:39;;;;;;;;;9.00;9.00;;;;;11.21;100.00;100330.81;6310424;20;2747223;-46
2023/10/03 00:29:13;;;;;;;;;16.00;13.33;;;;;11.09;100.00;100337.72;6280081;20;3545112;-45
2023/10/03 00:31:41;;;;;;;;;18.67;14.67;;;;;11.18;100.00;100342.59;6309769;20;3551405;-47
2023/10/03 00:34:14;;;;;;;;;15.33;15.00;;;;;11.08;100.00;100335.97;6308034;20;3544032;-46
2023/10/03 00:36:42;;;;;;;;;15.00;15.00;;;;;10.72;100.00;100338.78;6312140;20;2806615;-48
2023/10/03 00:39:11;;;;;;;;;14.00;13.00;;;;;10.82;100.00;100334.69;6278888;20;3507731;-47
2023/10/03 00:41:40;;;;;;;;;15.00;13.00;;;;;10.71;100.00;100335.22;6310227;20;2790001;-46
2023/10/03 00:44:10;;;;;;;;;11.50;11.50;;;;;11.17;100.00;100335.50;6314595;20;2795197;-48
2023/10/03 00:46:38;;;;;;;;;12.00;10.67;;;;;10.77;100.00;100326.84;6276090;20;2796188;-45
2023/10/03 00:49:14;;;;;;;;;14.00;12.50;;;;;10.45;100.00;100325.84;6311985;20;2798174;-45
2023/10/03 00:51:45;;;;;;;;;15.00;11.67;;;;;10.39;100.00;100326.13;6276758;20;2798259;-45
2023/10/03 00:54:16;;;;;;;;;12.80;10.00;;;;;10.21;100.00;100333.25;6331586;20;2789873;-45
2023/10/03 00:56:45;;;;;;;;;13.33;10.33;;;;;10.30;100.00;100332.84;6275011;20;2792049;-48
2023/10/03 00:59:14;;;;;;;;;11.00;11.00;;;;;9.99;100.00;100322.72;6308087;20;2796200;-45
2023/10/03 01:01:46;;;;;;;;;11.00;10.00;;;;;9.86;100.00;100325.13;6335401;20;2791015;-46
2023/10/03 01:04:19;;;;;;;;;12.33;10.33;;;;;10.18;100.00;100329.84;6285352;20;3522162;-47
2023/10/03 01:06:48;;;;;;;;;12.50;11.00;;;;;10.44;100.00;100317.84;6318338;20;2793005;-49
2023/10/03 01:09:24;;;;;;;;;12.00;10.50;;;;;10.43;100.00;100316.13;6282930;20;2793026;-46
2023/10/03 01:11:53;;;;;;;;;13.33;13.00;;;;;10.08;100.00;100322.28;6282349;20;2788935;-48
2023/10/03 01:14:23;;;;;;;;;15.00;13.00;;;;;10.36;100.00;100317.38;6311203;20;2798283;-46
2023/10/03 01:16:53;;;;;;;;;14.60;11.80;;;;;10.70;100.00;100308.44;6333075;20;2780606;-47
2023/10/03 01:19:29;;;;;;;;;14.33;13.00;;;;;10.23;100.00;100307.22;6284905;20;3526409;-45
2023/10/03 01:21:59;;;;;;;;;16.33;11.67;;;;;10.71;100.00;100308.34;6312651;20;2808701;-46
2023/10/03 01:24:29;;;;;;;;;15.00;14.00;;;;;10.18;100.00;100306.56;6312060;20;3538175;-47
2023/10/03 01:26:57;;;;;;;;;8.50;6.00;;;;;10.53;100.00;100306.63;6314886;20;2747137;-50
2023/10/03 01:29:26;;;;;;;;;13.00;13.00;;;;;10.37;100.00;100308.34;6282003;20;3517970;-47
2023/10/03 01:31:55;;;;;;;;;15.67;14.00;;;;;10.69;100.00;100307.59;6282045;20;2800432;-48
2023/10/03 01:34:23;;;;;;;;;13.50;12.50;;;;;10.31;100.00;100305.03;6316555;20;2794163;-47
2023/10/03 01:36:52;;;;;;;;;16.00;15.00;;;;;10.57;100.00;100297.47;6281678;20;2817065;-45
2023/10/03 01:39:23;;;;;;;;;14.67;13.67;;;;;10.36;100.00;100304.81;6283166;20;3533570;-47
2023/10/03 01:41:51;;;;;;;;;13.00;12.00;;;;;10.17;100.00;100294.09;6315824;20;2800371;-45
2023/10/03 01:44:19;;;;;;;;;13.00;13.00;;;;;10.22;100.00;100291.19;6286904;20;2800279;-48
2023/10/03 01:46:48;;;;;;;;;12.67;12.00;;;;;10.10;100.00;100289.97;6278937;20;3528479;-48
2023/10/03 01:49:16;;;;;;;;;16.00;14.00;;;;;10.36;100.00;100288.72;6313484;20;2805516;-46
2023/10/03 01:51:44;;;;;;;;;15.50;14.50;;;;;10.49;100.00;100288.94;6283575;20;2806564;-46
2023/10/03 01:54:12;;;;;;;;;15.50;14.00;;;;;10.61;100.00;100288.31;6282606;20;2811720;-47
2023/10/03 01:56:40;;;;;;;;;17.50;15.00;;;;;10.25;100.00;100299.94;6283200;20;2817059;-47
2023/10/03 01:59:08;;;;;;;;;14.50;14.50;;;;;10.23;100.00;100287.56;6285965;20;2805510;-45
2023/10/03 02:01:37;;;;;;;;;18.50;16.50;;;;;10.25;100.00;100283.84;6280994;20;2833620;-46
2023/10/03 02:04:06;;;;;;;;;14.00;14.00;;;;;10.11;100.00;100283.69;6282922;20;2808706;-44
2023/10/03 02:06:35;;;;;;;;;16.33;14.67;;;;;10.20;100.00;100285.03;6282031;20;3544069;-46
2023/10/03 02:09:07;;;;;;;;;20.00;17.00;;;;;10.20;100.00;100285.03;6281014;20;3575278;-46
2023/10/03 02:11:37;;;;;;;;;14.50;14.50;;;;;10.07;100.00;100293.69;6283941;20;2805595;-46
2023/10/03 02:14:08;;;;;;;;;16.33;16.33;;;;;9.91;100.00;100286.50;6283448;20;2827402;-49
2023/10/03 02:16:41;;;;;;;;;18.50;16.00;;;;;9.76;100.00;100283.59;6309439;20;2498200;-51
2023/10/03 02:19:12;;;;;;;;;17.50;15.00;;;;;9.92;100.00;100282.84;6306716;20;2822164;-47
2023/10/03 02:21:42;;;;;;;;;17.50;16.50;;;;;9.82;100.00;100277.94;6311654;20;2826296;-46
2023/10/03 02:24:12;;;;;;;;;19.50;17.00;;;;;10.09;100.00;100277.53;6279781;20;2840894;-46
2023/10/03 02:26:45;;;;;;;;;17.00;14.00;;;;;9.72;100.00;100273.97;6283010;20;2811758;-46
2023/10/03 02:29:13;;;;;;;;;17.50;15.50;;;;;9.78;100.00;100268.31;6282622;20;2818026;-45
2023/10/03 02:31:43;;;;;;;;;14.67;14.00;;;;;9.57;100.00;100269.34;6283243;20;3544055;-47
2023/10/03 02:34:12;;;;;;;;;14.00;11.67;;;;;9.56;100.00;100264.94;6277815;20;2797387;-45
2023/10/03 02:36:40;;;;;;;;;14.50;13.00;;;;;10.23;100.00;100266.94;6310852;20;2809693;-45
2023/10/03 02:39:09;;;;;;;;;16.50;14.00;;;;;10.09;100.00;100266.78;6279556;20;2799310;-52
2023/10/03 02:41:37;;;;;;;;;17.50;16.00;;;;;9.55;100.00;100268.56;6273672;20;2843014;-46
2023/10/03 02:44:09;;;;;;;;;17.33;15.67;;;;;9.63;100.00;100266.38;6279378;20;3552402;-48
2023/10/03 02:46:38;;;;;;;;;14.00;14.00;;;;;9.81;100.00;100269.97;6311859;20;3523225;-47
2023/10/03 02:49:08;;;;;;;;;16.00;12.67;;;;;9.64;100.00;100262.75;6313080;20;3547167;-46
2023/10/03 02:51:36;;;;;;;;;16.00;15.00;;;;;9.44;100.00;100256.53;6319383;20;2816999;-46
2023/10/03 02:54:06;;;;;;;;;15.20;14.40;;;;;10.15;100.00;100257.56;6303120;20;2810711;-45
2023/10/03 02:56:35;;;;;;;;;15.33;11.33;;;;;9.64;100.00;100263.63;6279835;20;3530455;-45
2023/10/03 02:59:06;;;;;;;;;12.00;10.00;;;;;9.09;100.00;100257.34;6281228;20;2785812;-48
2023/10/03 03:01:37;;;;;;;;;12.67;12.00;;;;;9.12;100.00;100259.88;6310476;20;2789103;-45
2023/10/03 03:04:06;;;;;;;;;10.50;10.00;;;;;9.45;100.00;100258.28;6308399;20;2796174;-44
2023/10/03 03:06:36;;;;;;;;;38.33;33.00;;;;;9.80;100.00;100263.75;6278178;20;2870148;-45
2023/10/03 03:09:07;;;;;;;;;26.00;23.67;;;;;9.64;100.00;100257.41;6315213;20;3592060;-45
2023/10/03 03:11:50;;;;;;;;;22.50;20.50;;;;;9.72;100.00;100260.56;6278775;20;2819457;-45
2023/10/03 03:14:19;;;;;;;;;20.00;20.00;;;;;9.45;100.00;100258.28;6278271;20;2840911;-47
2023/10/03 03:16:48;;;;;;;;;17.00;14.00;;;;;9.47;100.00;100260.00;6279853;20;2819097;-47
2023/10/03 03:19:17;;;;;;;;;14.00;14.00;;;;;9.40;100.00;100260.31;6282190;20;2798480;-51
2023/10/03 03:21:45;;;;;;;;;12.00;12.00;;;;;9.30;100.00;100252.78;6317208;20;2794070;-45
2023/10/03 03:24:17;;;;;;;;;17.33;16.00;;;;;9.41;100.00;100255.81;6279477;20;3564865;-48
2023/10/03 03:26:48;;;;;;;;;19.00;15.00;;;;;9.54;100.00;100251.59;6312987;20;2818024;-52
2023/10/03 03:29:20;;;;;;;;;31.00;29.33;;;;;9.25;100.00;100253.00;6281639;20;2834753;-45
2023/10/03 03:31:50;;;;;;;;;21.67;21.00;;;;;9.58;100.00;100252.31;6311438;20;3573176;-47
2023/10/03 03:34:21;;;;;;;;;29.33;28.00;;;;;9.29;100.00;100246.53;6317028;20;3583575;-48
2023/10/03 03:36:55;;;;;;;;;46.00;36.00;;;;;9.06;100.00;100250.31;6276860;20;2864868;-47
2023/10/03 03:39:26;;;;;;;;;37.33;33.00;;;;;8.95;100.00;100253.47;6311455;20;3594000;-46
2023/10/03 03:41:57;;;;;;;;;34.67;31.33;;;;;9.14;100.00;100247.28;6279556;20;2853513;-48
2023/10/03 03:44:25;;;;;;;;;53.00;45.00;;;;;9.52;100.00;100244.56;6309812;20;2853366;-46
2023/10/03 03:46:55;;;;;;;;;32.33;28.33;;;;;8.98;100.00;100245.31;6276962;20;2840985;-45
2023/10/03 03:49:25;;;;;;;;;27.33;27.00;;;;;9.07;100.00;100245.81;6310256;20;3579450;-44
2023/10/03 03:51:54;;;;;;;;;19.00;15.67;;;;;8.63;100.00;100235.31;6277457;20;3554435;-47
2023/10/03 03:54:24;;;;;;;;;45.33;38.00;;;;;8.92;100.00;100239.34;6307701;20;2861755;-46
2023/10/03 03:56:53;;;;;;;;;52.00;43.00;;;;;9.42;100.00;100236.97;6308434;20;2859685;-47
2023/10/03 03:59:22;;;;;;;;;43.00;35.00;;;;;9.01;100.00;100237.13;6313174;20;3606543;-44
2023/10/03 04:01:54;;;;;;;;;41.67;37.33;;;;;8.79;100.00;100236.34;6278264;20;2863885;-45
2023/10/03 04:04:23;;;;;;;;;49.00;41.50;;;;;9.01;100.00;100236.25;6310548;20;2850382;-45
2023/10/03 04:06:55;;;;;;;;;50.00;41.00;;;;;9.16;100.00;100229.28;6276517;20;2852366;-45
2023/10/03 04:09:23;;;;;;;;;39.00;34.00;;;;;9.23;100.00;100220.91;6278428;20;2852387;-47
2023/10/03 04:11:53;;;;;;;;;40.33;36.33;;;;;8.98;100.00;100218.53;6276278;20;2854533;-45
2023/10/03 04:14:22;;;;;;;;;35.00;33.00;;;;;8.83;100.00;100221.03;6310816;20;3592960;-45
2023/10/03 04:16:51;;;;;;;;;33.00;29.00;;;;;9.11;100.00;100215.25;6275782;20;2844064;-46
2023/10/03 04:19:19;;;;;;;;;32.00;29.00;;;;;9.38;100.00;100218.44;6279996;20;2843025;-47
2023/10/03 04:21:50;;;;;;;;;34.00;31.50;;;;;9.18;100.00;100212.22;6269318;20;2849279;-44
2023/10/03 04:24:20;;;;;;;;;31.33;29.00;;;;;9.13;100.00;100213.38;6278202;20;2847250;-44
2023/10/03 04:26:50;;;;;;;;;23.00;22.50;;;;;9.08;100.00;100226.13;6307223;20;2835755;-45
2023/10/03 04:29:18;;;;;;;;;19.00;16.00;;;;;9.67;100.00;100225.06;6275415;20;2500414;-45
2023/10/03 04:31:46;;;;;;;;;18.50;16.00;;;;;9.51;100.00;100224.09;6276643;20;2492104;-44
2023/10/03 04:34:16;;;;;;;;;18.00;18.00;;;;;9.32;100.00;100226.75;6277189;20;2500467;-46
2023/10/03 04:36:47;;;;;;;;;20.67;17.33;;;;;9.71;100.00;100221.28;6278467;20;3577324;-49
2023/10/03 04:39:19;;;;;;;;;20.00;18.00;;;;;9.86;100.00;100231.25;6311766;20;2836924;-46
2023/10/03 04:41:48;;;;;;;;;20.00;18.33;;;;;9.38;100.00;100222.00;6284589;20;3577406;-47
2023/10/03 04:44:17;;;;;;;;;20.00;19.50;;;;;8.99;100.00;100225.59;6281169;20;2500411;-47
2023/10/03 04:46:48;;;;;;;;;16.33;15.00;;;;;9.46;100.00;100226.97;6281566;20;3547165;-50
2023/10/03 04:49:16;;;;;;;;;15.00;15.00;;;;;9.27;100.00;100227.00;6313642;20;2801272;-44
2023/10/03 04:51:46;;;;;;;;;18.50;14.50;;;;;9.52;100.00;100220.44;6313079;20;2496209;-49
2023/10/03 04:54:16;;;;;;;;;17.00;17.00;;;;;9.09;100.00;100233.22;6279823;20;3572373;-44
2023/10/03 04:56:45;;;;;;;;;19.00;16.00;;;;;9.10;100.00;100229.59;6282215;20;2830497;-47
2023/10/03 04:59:15;;;;;;;;;31.67;29.00;;;;;9.20;100.00;100220.19;6282423;20;3603607;-46
2023/10/03 05:01:44;;;;;;;;;36.00;31.67;;;;;8.69;100.00;100230.56;6313903;20;3602436;-45
2023/10/03 05:04:14;;;;;;;;;21.00;19.00;;;;;8.36;100.00;100225.72;6279393;20;2494998;-49
2023/10/03 05:06:47;;;;;;;;;15.33;13.33;;;;;8.88;100.00;100230.59;6279464;20;3541076;-46
2023/10/03 05:09:17;;;;;;;;;17.50;17.50;;;;;8.73;100.00;100231.28;6283284;20;2837749;-44
2023/10/03 05:11:50;;;;;;;;;33.33;29.00;;;;;9.58;100.00;100233.53;6280693;20;2852404;-44
2023/10/03 05:14:20;;;;;;;;;22.00;20.50;;;;;9.19;100.00;100223.81;6308385;20;2843269;-45
2023/10/03 05:16:50;;;;;;;;;33.33;31.00;;;;;9.74;100.00;100239.91;6279023;20;2853596;-45
2023/10/03 05:19:21;;;;;;;;;64.00;50.33;;;;;9.56;100.00;100233.63;6313286;20;2883690;-44
2023/10/03 05:21:49;;;;;;;;;30.33;26.33;;;;;9.44;100.00;100240.44;6315469;20;3597183;-45
2023/10/03 05:24:19;;;;;;;;;51.00;42.00;;;;;9.20;100.00;100238.94;6280159;20;2863844;-44
2023/10/03 05:26:49;;;;;;;;;29.33;26.00;;;;;9.29;100.00;100238.50;6282217;20;2855605;-46
2023/10/03 05:29:17;;;;;;;;;21.00;18.50;;;;;9.36;100.00;100239.09;6306187;20;2500302;-47
2023/10/03 05:31:48;;;;;;;;;28.67;26.67;;;;;9.92;100.00;100240.78;6283811;20;3602428;-44
2023/10/03 05:34:20;;;;;;;;;57.00;44.00;;;;;10.57;100.00;100254.50;6312357;20;3621097;-46
2023/10/03 05:36:50;;;;;;;;;42.00;35.00;;;;;10.52;100.00;100246.69;6309224;20;2845290;-45
2023/10/03 05:39:26;;;;;;;;;25.00;22.33;;;;;10.76;100.00;100244.53;6313554;20;2850355;-44
2023/10/03 05:41:56;;;;;;;;;29.33;28.33;;;;;10.72;100.00;100251.03;6312084;20;3585689;-45
2023/10/03 05:44:25;;;;;;;;;31.67;28.67;;;;;10.73;100.00;100255.44;6280508;20;2848191;-48
2023/10/03 05:46:57;;;;;;;;;24.33;24.33;;;;;11.03;100.00;100257.41;6312962;20;3598165;-44
2023/10/03 05:49:27;;;;;;;;;29.00;26.00;;;;;11.52;99.06;100243.09;6281001;20;3596093;-44
2023/10/03 05:51:56;;;;;;;;;28.00;25.00;;;;;11.75;97.77;100239.97;6314117;20;3583633;-44
2023/10/03 05:54:26;;;;;;;;;25.67;24.33;;;;;12.00;97.32;100247.50;6279215;20;2849326;-44
2023/10/03 05:56:55;;;;;;;;;24.33;21.33;;;;;13.30;92.58;100251.31;6312898;20;3568047;-47
2023/10/03 05:59:26;;;;;;;;;35.00;30.00;;;;;16.62;76.37;100261.28;6311812;20;3565867;-44
2023/10/03 06:01:58;;;;;;;;;26.33;23.33;;;;;18.88;67.06;100259.06;6279973;20;3582546;-45
2023/10/03 06:04:27;;;;;;;;;25.33;20.67;;;;;16.73;68.97;100261.28;6285173;20;3587743;-46
2023/10/03 06:06:56;;;;;;;;;23.50;22.00;;;;;13.98;81.46;100255.84;6280315;20;2848226;-51
2023/10/03 06:09:26;;;;;;;;;17.00;15.00;;;;;13.18;88.45;100252.91;6282667;20;2821159;-50
2023/10/03 06:11:56;;;;;;;;;24.00;22.33;;;;;13.76;88.08;100249.19;6278696;20;2833739;-49
2023/10/03 06:14:27;;;;;;;;;25.00;22.33;;;;;13.35;89.11;100263.53;6310468;20;2833636;-47
2023/10/03 06:16:56;;;;;;;;;22.67;22.33;;;;;12.72;92.33;100250.41;6313159;20;3581513;-44
2023/10/03 06:19:25;;;;;;;;;20.50;16.00;;;;;12.93;93.94;100254.47;6279528;20;2835739;-45
2023/10/03 06:21:53;;;;;;;;;18.33;16.00;;;;;13.62;91.57;100257.31;6286116;20;3566969;-45
2023/10/03 06:24:25;;;;;;;;;21.00;19.00;;;;;12.93;92.32;100256.28;6310964;20;2838822;-45
2023/10/03 06:26:53;;;;;;;;;23.00;21.00;;;;;13.91;89.31;100260.81;6278341;20;2718073;-51
2023/10/03 06:29:23;;;;;;;;;32.67;30.00;;;;;13.95;89.63;100256.06;6305399;20;2848435;-45
2023/10/03 06:31:52;;;;;;;;;20.00;20.00;;;;;13.48;90.55;100262.72;6314701;20;3551313;-47
2023/10/03 06:34:21;;;;;;;;;28.50;23.00;;;;;14.46;88.99;100257.09;6310795;20;2844023;-50
2023/10/03 06:36:52;;;;;;;;;27.00;26.33;;;;;15.05;84.90;100253.91;6276920;20;3592063;-53
2023/10/03 06:39:21;;;;;;;;;23.00;19.00;;;;;14.27;87.04;100252.09;6313795;20;2781561;-47
2023/10/03 06:41:55;;;;;;;;;19.50;17.00;;;;;14.75;86.18;100261.50;6275927;20;2836800;-50
2023/10/03 06:44:24;;;;;;;;;20.00;20.00;;;;;14.84;83.84;100255.41;6283571;20;3575208;-45
2023/10/03 06:46:53;;;;;;;;;20.00;19.00;;;;;14.50;85.69;100257.72;6272383;20;2831600;-51
2023/10/03 06:49:23;;;;;;;;;21.50;15.50;;;;;15.10;84.70;100259.84;6279793;20;2837781;-48
2023/10/03 06:51:56;;;;;;;;;38.00;34.00;;;;;16.41;79.84;100261.09;6283159;20;3600275;-46
2023/10/03 06:54:25;;;;;;;;;11.60;7.60;;;;;16.26;76.62;100263.09;6304396;20;2780487;-45
2023/10/03 06:56:56;;;;;;;;;24.33;23.00;;;;;16.10;79.28;100259.84;6278718;20;2846243;-47
2023/10/03 06:59:25;;;;;;;;;20.00;17.00;;;;;16.08;78.79;100259.94;6307702;20;3573209;-45
2023/10/03 07:01:54;;;;;;;;;17.00;16.00;;;;;15.57;81.35;100258.25;6274402;20;2821634;-51
2023/10/03 07:04:22;;;;;;;;;25.00;25.00;;;;;15.73;80.23;100260.72;6283978;20;3578487;-45
2023/10/03 07:06:51;;;;;;;;;25.00;23.33;;;;;16.55;77.80;100260.00;6280275;20;3590895;-48
2023/10/03 07:09:21;;;;;;;;;25.00;22.00;;;;;17.18;73.24;100261.38;6279506;20;2835743;-47
2023/10/03 07:11:50;;;;;;;;;18.00;14.33;;;;;16.52;76.72;100260.25;6312784;20;3549254;-48
2023/10/03 07:14:19;;;;;;;;;17.67;17.67;;;;;16.78;76.12;100258.25;6313691;20;3567983;-46
2023/10/03 07:16:48;;;;;;;;;16.67;16.67;;;;;17.11;75.81;100257.44;6315905;20;3571553;-47
2023/10/03 07:19:17;;;;;;;;;19.00;16.33;;;;;16.84;75.79;100255.91;6314691;20;3561825;-47
2023/10/03 07:21:46;;;;;;;;;17.00;16.00;;;;;17.14;73.65;100270.78;6280514;20;2819031;-46
2023/10/03 07:24:15;;;;;;;;;25.67;25.67;;;;;17.30;73.61;100270.41;6284877;20;3602481;-45
2023/10/03 07:26:43;;;;;;;;;18.33;17.33;;;;;17.60;72.87;100269.75;6281469;20;3564944;-47
2023/10/03 07:29:11;;;;;;;;;20.00;17.00;;;;;17.73;72.79;100272.34;6280086;20;2490029;-49
2023/10/03 07:31:41;;;;;;;;;14.67;14.67;;;;;17.98;71.32;100265.75;6280862;20;3539961;-44
2023/10/03 07:34:10;;;;;;;;;16.50;15.50;;;;;18.06;69.27;100271.44;6280684;20;2825311;-44
2023/10/03 07:36:38;;;;;;;;;14.50;14.00;;;;;18.70;68.55;100258.81;6279386;20;2489980;-44
2023/10/03 07:39:07;;;;;;;;;16.33;14.67;;;;;18.74;67.98;100258.38;6283529;20;2492095;-45
2023/10/03 07:41:36;;;;;;;;;16.33;14.00;;;;;17.29;72.18;100264.09;6314071;20;3548190;-44
2023/10/03 07:44:05;;;;;;;;;14.67;11.00;;;;;18.76;67.74;100266.47;6311866;20;3501311;-48
2023/10/03 07:46:34;;;;;;;;;16.67;14.00;;;;;18.93;67.33;100271.31;6308943;20;3519237;-44
2023/10/03 07:49:02;;;;;;;;;16.00;14.33;;;;;18.68;68.20;100264.38;6276749;20;2489944;-49
2023/10/03 07:51:31;;;;;;;;;17.00;15.67;;;;;18.25;69.11;100268.03;6313244;20;3545192;-45
2023/10/03 07:54:03;;;;;;;;;16.00;16.00;;;;;18.67;68.22;100272.66;6311863;20;3561758;-46
2023/10/03 07:56:33;;;;;;;;;14.00;13.00;;;;;19.15;67.60;100266.69;6276773;20;2810872;-49
2023/10/03 07:59:04;;;;;;;;;14.00;13.00;;;;;19.07;67.47;100279.13;6281018;20;2810748;-49
2023/10/03 08:01:38;;;;;;;;;16.00;15.00;;;;;19.27;66.61;100276.47;6281766;20;3539968;-48
2023/10/03 08:04:31;;;;;;;;;14.33;14.00;;;;;19.19;67.08;100276.31;6280586;20;2491998;-46
2023/10/03 08:07:04;;;;;;;;;14.67;11.67;;;;;18.80;67.42;100278.78;6310282;20;3530585;-49
2023/10/03 08:09:35;;;;;;;;;28.67;28.67;;;;;19.07;67.92;100281.84;6278327;20;3590884;-48
2023/10/03 08:12:11;;;;;;;;;16.33;14.33;;;;;19.66;65.95;100283.00;6313240;20;2496220;-47
2023/10/03 08:14:41;;;;;;;;;18.00;11.67;;;;;19.19;67.64;100273.59;6311828;20;3531562;-45
2023/10/03 08:17:11;;;;;;;;;13.00;11.67;;;;;19.71;67.18;100268.97;6280634;20;3523233;-48
2023/10/03 08:19:44;;;;;;;;;15.00;12.50;;;;;19.95;64.91;100280.34;6313782;20;2780548;-46
2023/10/03 08:22:14;;;;;;;;;22.00;20.67;;;;;20.70;63.87;100274.41;6313936;20;3572292;-51
2023/10/03 08:24:45;;;;;;;;;2.00;2.00;;;;;21.03;62.48;100283.97;6288968;20;2739927;-47
2023/10/03 08:27:21;;;;;;;;;16.00;14.00;;;;;20.67;63.25;100278.28;6314908;20;3533706;-48
2023/10/03 08:29:51;;;;;;;;;14.67;10.00;;;;;19.57;66.08;100277.50;6288616;20;2792070;-47
2023/10/03 08:32:20;;;;;;;;;15.00;10.50;;;;;20.89;62.55;100278.97;6316523;20;2786753;-47
2023/10/03 08:34:49;;;;;;;;;10.67;10.67;;;;;20.97;61.71;100274.50;6316272;20;3520062;-48
2023/10/03 08:37:21;;;;;;;;;11.33;10.00;;;;;20.77;63.07;100268.22;6289158;20;2781553;-46
2023/10/03 08:39:54;;;;;;;;;14.67;12.67;;;;;21.01;61.51;100275.03;6316620;20;3524382;-46
2023/10/03 08:42:35;;;;;;;;;14.33;12.00;;;;;21.83;60.72;100270.75;6321206;20;3522204;-48
2023/10/03 08:48:11;;;;;;;;;12.67;11.00;;;;;21.22;62.06;100258.47;6313499;20;3522529;-49
2023/10/03 08:50:47;;;;;;;;;24.00;24.00;;;;;22.34;58.64;100255.59;6315975;20;3582675;-47
2023/10/03 08:53:28;;;;;;;;;10.33;10.00;;;;;21.93;59.48;100260.59;6315589;20;3518360;-47
2023/10/03 08:55:58;;;;;;;;;12.00;10.00;;;;;21.72;60.16;100260.00;6289676;20;2781516;-50
2023/10/03 08:58:27;;;;;;;;;14.00;14.00;;;;;21.59;60.05;100263.09;6316440;20;3539880;-48
2023/10/03 09:01:04;;;;;;;;;14.00;9.67;;;;;21.56;60.61;100264.25;6284091;20;3503781;-49
2023/10/03 09:03:47;;;;;;;;;13.00;13.00;;;;;22.35;59.85;100249.09;6315404;20;2483715;-47
2023/10/03 09:06:21;;;;;;;;;11.00;10.33;;;;;21.94;60.07;100256.00;6319661;20;2788834;-48
2023/10/03 09:09:08;;;;;;;;;17.67;13.00;;;;;22.20;59.14;100242.47;6312176;20;3530473;-47
2023/10/03 09:11:41;;;;;;;;;17.00;15.00;;;;;22.46;57.85;100243.41;6282453;20;2816438;-48
2023/10/03 09:14:14;;;;;;;;;11.67;11.67;;;;;22.15;57.88;100248.38;6280598;20;3513846;-47
2023/10/03 09:16:43;;;;;;;;;10.00;10.00;;;;;22.07;58.21;100251.03;6312920;20;3505640;-47
2023/10/03 09:19:13;;;;;;;;;12.67;11.67;;;;;22.48;56.87;100241.34;6313799;20;3520106;-51
2023/10/03 09:21:42;;;;;;;;;13.67;12.67;;;;;23.07;56.06;100233.44;6314158;20;3529618;-47
2023/10/03 09:24:14;;;;;;;;;13.67;11.00;;;;;23.90;53.46;100234.69;6283690;20;3513945;-49
2023/10/03 09:26:51;;;;;;;;;17.67;16.00;;;;;23.81;53.44;100240.16;6313420;20;3559765;-48
2023/10/03 09:29:31;;;;;;;;;9.00;8.67;;;;;23.93;51.44;100235.19;6294859;20;2739884;-47
2023/10/03 09:32:12;;;;;;;;;10.00;10.00;;;;;23.31;51.35;100229.97;6315772;20;2791971;-47
2023/10/03 09:34:44;;;;;;;;;10.33;8.00;;;;;23.60;50.92;100226.00;6323460;20;2771229;-45
2023/10/03 09:37:13;;;;;;;;;12.33;8.67;;;;;24.15;49.75;100220.00;6319741;20;2774306;-46
2023/10/03 09:39:48;;;;;;;;;11.00;11.00;;;;;24.29;49.86;100219.31;6320389;20;2788889;-52
2023/10/03 09:42:23;;;;;;;;;9.67;7.33;;;;;23.97;49.55;100211.91;6317771;20;2760773;-45
2023/10/03 09:44:59;;;;;;;;;14.00;10.33;;;;;23.73;50.72;100212.69;6320292;20;2790956;-46
2023/10/03 09:47:31;;;;;;;;;11.00;10.33;;;;;24.49;49.02;100216.28;6320927;20;2779477;-49
2023/10/03 09:50:09;;;;;;;;;10.00;7.00;;;;;23.97;49.60;100216.53;6317303;20;2763894;-47
2023/10/03 09:52:39;;;;;;;;;8.00;7.67;;;;;23.97;49.60;100216.53;6315232;20;2757673;-49
2023/10/03 09:55:21;;;;;;;;;6.67;6.00;;;;;24.87;47.78;100220.19;6324340;20;2741371;-50
2023/10/03 09:57:54;;;;;;;;;11.33;6.33;;;;;23.87;49.12;100209.31;6323770;20;2755496;-47
2023/10/03 10:00:39;;;;;;;;;7.00;7.00;;;;;24.04;48.77;100212.06;6314272;20;2743161;-51
2023/10/03 10:03:27;;;;;;;;;5.00;5.00;;;;;24.27;48.64;100210.38;6312538;20;2739889;-46
2023/10/03 10:06:12;;;;;;;;;7.33;7.33;;;;;24.30;47.94;100214.69;6322209;20;2739872;-49
2023/10/03 10:08:59;;;;;;;;;6.67;6.67;;;;;23.97;48.56;100195.44;6317653;20;2737804;-52
2023/10/03 10:11:30;;;;;;;;;6.00;6.00;;;;;24.57;47.42;100198.97;6315866;20;2746107;-49
2023/10/03 10:14:10;;;;;;;;;7.67;7.67;;;;;24.62;47.45;100191.91;6322189;20;2733665;-49
2023/10/03 10:17:03;;;;;;;;;6.33;4.33;;;;;24.44;47.59;100193.94;6307382;20;2745064;-46
2023/10/03 10:20:13;;;;;;;;;7.67;7.67;;;;;24.63;47.71;100198.25;6315755;20;2735752;-52
2023/10/03 10:23:02;;;;;;;;;5.00;5.00;;;;;24.94;46.86;100191.00;6324344;20;2743013;-47
2023/10/03 10:25:42;;;;;;;;;6.33;6.33;;;;;24.50;46.79;100201.53;6317426;20;2732720;-45
2023/10/03 10:28:31;;;;;;;;;6.40;6.20;;;;;24.62;47.19;100194.66;6340078;20;2746269;-51
2023/10/03 10:31:29;;;;;;;;;7.00;5.60;;;;;24.93;46.73;100193.91;6311334;20;2743024;-45
2023/10/03 10:34:21;;;;;;;;;6.00;6.00;;;;;24.64;46.86;100189.81;6282407;20;2738860;-45
2023/10/03 10:37:17;;;;;;;;;6.67;6.67;;;;;24.98;45.91;100186.00;6312585;20;2750271;-49
2023/10/03 10:40:04;;;;;;;;;7.33;6.00;;;;;24.83;46.73;100187.75;6315017;20;2734846;-48
2023/10/03 10:42:59;;;;;;;;;3.00;3.00;;;;;24.90;45.84;100186.88;6342823;20;2732714;-45
2023/10/03 10:45:37;;;;;;;;;9.00;5.00;;;;;25.03;46.24;100178.09;6324975;20;2733633;-45
2023/10/03 10:48:11;;;;;;;;;5.80;5.80;;;;;24.83;45.60;100180.38;6339003;20;2739898;-46
2023/10/03 10:51:07;;;;;;;;;14.00;7.00;;;;;25.39;45.61;100169.41;6283032;20;2781913;-46
2023/10/03 10:53:43;;;;;;;;;6.67;6.67;;;;;24.83;45.46;100165.75;6313158;20;2736814;-45
2023/10/03 10:56:14;;;;;;;;;7.33;6.00;;;;;25.03;45.60;100160.75;6312400;20;2744050;-46
2023/10/03 10:59:17;;;;;;;;;7.67;5.33;;;;;24.96;45.54;100155.09;6318484;20;2745169;-47
2023/10/03 11:01:45;;;;;;;;;6.00;6.00;;;;;24.85;44.91;100147.22;6315913;20;2741965;-48
2023/10/03 11:04:34;;;;;;;;;8.00;6.33;;;;;25.59;44.24;100145.94;6319283;20;2728531;-48
2023/10/03 11:07:03;;;;;;;;;9.00;6.00;;;;;25.34;44.65;100147.09;6315599;20;2745163;-46
2023/10/03 11:09:38;;;;;;;;;7.67;5.33;;;;;24.66;45.77;100142.97;6313258;20;2735688;-46
2023/10/03 11:12:09;;;;;;;;;7.00;5.00;;;;;24.92;45.14;100137.25;6314119;20;2742194;-47
2023/10/03 11:14:38;;;;;;;;;5.33;5.00;;;;;25.16;44.62;100126.19;6318747;20;2740289;-45
2023/10/03 11:17:10;;;;;;;;;4.00;4.00;;;;;25.00;45.39;100131.72;6338087;20;2752380;-46
2023/10/03 11:19:38;;;;;;;;;5.67;5.67;;;;;25.06;45.16;100128.25;6286241;20;2739897;-45